Fort Kent, Maine
Current Conditions -  °F | °C
As of 5:53 PM on Saturday 25 Oct 2014 (Local Time) from KFVE Reporting Station
Overcast Overcast  
Wind Chill: 37°   Ceiling: 6000
Heat Index: 40°   Visibility: 10mi
Dew Point: 39°   Wind: 5mph
Humidity: 97%   Direction: 80°E
Pressure: 29.53"   Gusts: NA
Location:  47.26°N, 68.59°W
Report Text: KFVE 252153Z AUTO 08004KT 10SM BKN060 OVC090 04/04 A2953 RMK AO2 SLP003 T00440039
Loading
Personal Weather Stations






























Interactive Weather Map
Tropical Storm Tracking
New forecast layout! Learn more

10-Day Weather Forecast

Advertisements
Track Severe Weather on mobile